URSSURMM

Guest
Details From URSS - Sochi
To URMM - MINERALNYYE VODY
Flight Number -
Tags decoded
Created
Modified
Stats Distance 150 nm / 278 km
Max Altitude 0 ft / 0 m
Waypoints 5
Social Downloads 5
Likes 0
Share VATSIM

Download

Looking for another format? Having issues loading an existing format? Contact us
Advertisement - Login to hide

Notes

Requested: URSS BINOL G487 PR B967 ABELA URMM Unmatched points: G487 B967

Route

URSS BINOL PR ABELA URMM

ID Type Via Altitude Latitude Longitude Leg Dist Tot Dist Heading (true) Name
O URSS APT - 0 ft / 0 m 43.44475˚ 39.94730˚ - 0 nm - Sochi
BINOL FIX - 0 ft / 0 m 43.68833˚ 40.10861˚ 16 nm 16 nm 26° / 26° -
PR NDB - 0 ft / 0 m 44.11806˚ 41.47917˚ 64 nm 80 nm 66° / 67° PEREDOVAYA NDB
ABELA FIX - 0 ft / 0 m 44.19139˚ 42.60028˚ 48 nm 129 nm 84° / 85° -
O URMM APT - 0 ft / 0 m 44.22507˚ 43.08189˚ 20 nm 150 nm 84° / 85° MINERALNYYE VODY

Altitude Profile

Advertisement - Login to hide

URSS

Details ICAO URSS (AER)
Name Sochi
Region Russia
Timezone Europe/Moscow (UTC+3.0)
Stats Elevation 89 ft / 27 m (AMSL)
Location 43.444749° 39.947302°
Runways 2
Magnetic Variation 7.003° E

METAR

URSS 271730Z 00000MPS 9999 NSC 22/19 Q1015 R02/090070 R06/090070 NOSIG RMK R06/34001G05MPS QFE760

Decode

TAF

TAF URSS 271358Z 2715/2815 28006G11MPS 9999 SCT100 BECMG 2717/2718 06005MPS BKN015 TEMPO 2718/2806 VRB01MPS BKN008 BECMG 2806/2807 28005G10MPS SCT030

Decode

Departure Runways

ID Width Length Bearing (true) Bearing (mag) Surface Threshold Offset Overrun Length
02 161 ft / 49 m 7,267 ft / 2,215 m 28.98° 21.98° Concrete 0 ft / 0 m 0 ft / 0 m
06 164 ft / 50 m 9,531 ft / 2,905 m 64.90° 57.90° Concrete 262 ft / 80 m 0 ft / 0 m
20 161 ft / 49 m 7,267 ft / 2,215 m 208.99° 201.99° Concrete 0 ft / 0 m 0 ft / 0 m
24 164 ft / 50 m 9,531 ft / 2,905 m 244.92° 237.92° Concrete 0 ft / 0 m 0 ft / 0 m

URMM

Details ICAO URMM (MRV)
Name MINERALNYYE VODY
Region Russia
Timezone Europe/Moscow (UTC+3.0)
Stats Elevation 1,054 ft / 321 m (AMSL)
Location 44.225073° 43.081891°
Runways 1
Magnetic Variation 7.426° E

METAR

URMM 271730Z 11007MPS 9999 SCT043 17/08 Q1021 R12/090070 NOSIG RMK QFE737/0983

Decode

TAF

TAF URMM 271358Z 2715/2815 11010G18MPS 9999 BKN030 TX23/2812Z TN10/2803Z TEMPO 2715/2718 10007G12MPS BECMG 2718/2720 10005G12MPS TEMPO 2721/2806 3100 BR BKN011

Decode

Destination Runways

ID Width Length Bearing (true) Bearing (mag) Surface Threshold Offset Overrun Length
12 197 ft / 60 m 12,766 ft / 3,891 m 122.28° 114.85° Concrete 0 ft / 0 m 240 ft / 73 m
30 197 ft / 60 m 12,766 ft / 3,891 m 302.31° 294.88° Concrete 0 ft / 0 m 250 ft / 76 m

Popular Alternatives